Time;durP1;ratioP1;P1;durP2;ratioP2;P2;SDS_P1;SDS_P2;PMS_P1;PMS_P2;Temp;Humidity;BMP_temperature;BMP_pressure;BME280_temperature;BME280_humidity;BME280_pressure;Samples;Min_cycle;Max_cycle;Signal;HPM_P1;HPM_P2
2022/05/12 00:00:20;;;;;;;4.50;1.73;;;11.60;99.90;;;;;;4994483;28;20114;-69
2022/05/12 00:02:46;;;;;;;11.32;2.10;;;;;;;;;;4961646;28;20050;-70
2022/05/12 00:05:13;;;;;;;3.50;1.25;;;11.40;99.90;;;;;;4977494;28;20205;-69
2022/05/12 00:07:41;;;;;;;3.70;1.52;;;11.30;99.90;;;;;;4995351;28;20035;-69
2022/05/12 00:10:08;;;;;;;5.95;2.22;;;11.60;99.90;;;;;;4976848;28;20142;-69
2022/05/12 00:12:34;;;;;;;7.88;2.13;;;11.50;99.90;;;;;;4995010;28;20492;-69
2022/05/12 00:15:03;;;;;;;3.65;1.58;;;11.60;99.90;;;;;;4977330;28;20038;-69
2022/05/12 00:17:29;;;;;;;8.05;1.73;;;11.50;99.90;;;;;;4961341;28;20038;-69
2022/05/12 00:19:55;;;;;;;5.63;2.03;;;11.40;99.90;;;;;;4994375;28;20039;-69
2022/05/12 00:22:21;;;;;;;5.88;1.92;;;;;;;;;;4977310;28;20046;-69
2022/05/12 00:24:46;;;;;;;9.57;1.63;;;11.30;99.90;;;;;;4977434;28;20042;-69
2022/05/12 00:27:12;;;;;;;3.28;1.77;;;;;;;;;;4977418;28;20034;-69
2022/05/12 00:29:38;;;;;;;5.90;1.95;;;11.30;99.90;;;;;;4993892;28;20515;-69
2022/05/12 00:32:03;;;;;;;7.75;2.20;;;11.20;99.90;;;;;;4977092;28;20034;-69
2022/05/12 00:34:29;;;;;;;6.32;2.00;;;11.30;99.90;;;;;;4961299;28;20145;-69
2022/05/12 00:36:54;;;;;;;5.28;1.70;;;11.20;99.90;;;;;;4977233;28;20117;-69
2022/05/12 00:39:20;;;;;;;3.30;1.77;;;11.30;99.90;;;;;;4976322;28;20053;-70
2022/05/12 00:41:46;;;;;;;6.03;2.00;;;11.20;99.90;;;;;;4976985;28;20034;-68
2022/05/12 00:44:15;;;;;;;3.63;1.30;;;11.10;99.90;;;;;;4976889;28;20043;-71
2022/05/12 00:46:42;;;;;;;4.82;2.05;;;11.30;99.90;;;;;;4994152;28;20049;-69
2022/05/12 00:49:22;;;;;;;4.72;1.77;;;11.30;99.90;;;;;;4976094;28;20042;-68
2022/05/12 00:51:58;;;;;;;4.32;1.23;;;11.10;99.90;;;;;;4975696;28;20046;-68
2022/05/12 00:54:34;;;;;;;3.50;1.58;;;11.20;99.90;;;;;;4994327;28;20412;-68
2022/05/12 00:57:02;;;;;;;3.42;1.02;;;11.00;99.90;;;;;;4960734;28;20058;-68
2022/05/12 00:59:30;;;;;;;4.13;1.60;;;11.20;99.90;;;;;;4975812;28;20100;-69
2022/05/12 01:01:58;;;;;;;4.93;2.00;;;11.00;99.90;;;;;;4976603;28;20042;-69
2022/05/12 01:04:24;;;;;;;6.18;2.08;;;11.00;99.90;;;;;;4976543;28;20108;-68
2022/05/12 01:06:51;;;;;;;5.00;2.05;;;10.90;99.90;;;;;;4976476;28;20398;-68
2022/05/12 01:09:16;;;;;;;6.60;1.95;;;10.90;99.90;;;;;;4993176;28;20441;-69
2022/05/12 01:11:42;;;;;;;6.15;2.40;;;10.90;99.90;;;;;;4960229;28;20117;-69
2022/05/12 01:14:08;;;;;;;4.57;1.63;;;11.00;99.90;;;;;;4993909;28;20080;-69
2022/05/12 01:16:47;;;;;;;6.30;1.58;;;10.90;99.90;;;;;;4993826;28;20077;-68
2022/05/12 01:19:21;;;;;;;5.25;1.70;;;10.90;99.90;;;;;;4975740;28;20042;-69
2022/05/12 01:21:48;;;;;;;3.80;1.38;;;11.00;99.90;;;;;;4976338;28;20046;-69
2022/05/12 01:24:15;;;;;;;4.60;1.40;;;11.10;99.90;;;;;;4960171;28;20069;-68
2022/05/12 01:26:41;;;;;;;5.60;1.90;;;11.00;99.90;;;;;;4959947;28;20049;-68
2022/05/12 01:29:08;;;;;;;5.63;2.10;;;11.00;99.90;;;;;;4992944;28;20117;-68
2022/05/12 01:31:34;;;;;;;6.13;1.85;;;10.90;99.90;;;;;;4993589;28;20045;-68
2022/05/12 01:34:01;;;;;;;6.57;2.22;;;10.70;99.90;;;;;;4993551;28;20042;-69
2022/05/12 01:36:27;;;;;;;6.63;2.03;;;11.00;99.90;;;;;;4976074;28;20501;-68
2022/05/12 01:38:52;;;;;;;5.97;2.10;;;10.90;99.90;;;;;;4992794;28;20058;-68
2022/05/12 01:41:18;;;;;;;6.55;1.90;;;10.70;99.90;;;;;;4943563;28;20045;-69
2022/05/12 01:43:44;;;;;;;4.78;2.15;;;10.70;99.90;;;;;;4993239;28;20448;-69
2022/05/12 01:46:10;;;;;;;4.30;2.03;;;10.90;99.90;;;;;;4993236;28;20038;-69
2022/05/12 01:48:36;;;;;;;7.53;2.05;;;10.70;99.90;;;;;;4993606;28;20222;-68
2022/05/12 01:51:02;;;;;;;6.15;2.30;;;10.60;99.90;;;;;;4992953;28;20439;-69
2022/05/12 01:53:30;;;;;;;5.50;2.15;;;10.50;99.90;;;;;;4975888;28;20041;-68
2022/05/12 01:55:56;;;;;;;8.15;2.65;;;10.60;99.90;;;;;;4975987;28;20100;-68
2022/05/12 01:58:22;;;;;;;5.95;2.97;;;10.60;99.90;;;;;;4959406;28;20089;-68
2022/05/12 02:00:48;;;;;;;7.35;2.03;;;10.60;99.90;;;;;;4974894;28;20451;-68
2022/05/12 02:03:14;;;;;;;6.20;2.45;;;10.50;99.90;;;;;;4975157;28;20049;-68
2022/05/12 02:05:41;;;;;;;11.48;2.90;;;10.70;99.90;;;;;;4975433;28;20054;-68
2022/05/12 02:08:08;;;;;;;8.48;2.50;;;10.60;99.90;;;;;;4975400;28;20243;-68
2022/05/12 02:10:38;;;;;;;5.20;2.75;;;10.60;99.90;;;;;;4992117;28;20488;-68
2022/05/12 02:13:04;;;;;;;5.72;2.63;;;10.50;99.90;;;;;;4975510;28;20042;-69
2022/05/12 02:15:31;;;;;;;8.40;2.85;;;10.60;99.90;;;;;;4975492;28;20520;-69
2022/05/12 02:17:56;;;;;;;12.55;2.90;;;10.50;99.90;;;;;;4992686;28;20046;-69
2022/05/12 02:20:22;;;;;;;7.18;2.55;;;10.40;99.90;;;;;;4974491;28;20049;-69
2022/05/12 02:22:48;;;;;;;6.20;2.33;;;10.60;99.90;;;;;;4975438;28;20085;-69
2022/05/12 02:25:14;;;;;;;9.20;2.83;;;10.60;99.90;;;;;;4992611;28;20074;-70
2022/05/12 02:27:45;;;;;;;5.13;2.20;;;10.60;99.90;;;;;;4975305;28;20085;-70
2022/05/12 02:30:20;;;;;;;9.10;2.25;;;10.60;99.90;;;;;;4991890;28;20499;-69
2022/05/12 02:32:45;;;;;;;12.98;3.28;;;10.70;99.90;;;;;;4992579;28;20045;-69
2022/05/12 02:35:11;;;;;;;11.20;3.15;;;10.50;99.90;;;;;;4975062;28;20496;-69
2022/05/12 02:37:38;;;;;;;9.95;3.42;;;10.40;99.90;;;;;;4992602;28;20064;-69
2022/05/12 02:40:04;;;;;;;6.53;2.72;;;10.40;99.90;;;;;;4974204;28;20038;-69
2022/05/12 02:42:29;;;;;;;6.90;2.75;;;10.30;99.90;;;;;;4959053;28;20045;-69
2022/05/12 02:44:55;;;;;;;10.85;2.55;;;10.50;99.90;;;;;;4992211;28;20042;-70
2022/05/12 02:47:20;;;;;;;5.20;2.45;;;10.40;99.90;;;;;;4975045;28;20472;-69
2022/05/12 02:49:46;;;;;;;11.18;2.97;;;10.40;99.90;;;;;;4974024;28;20034;-69
2022/05/12 02:52:11;;;;;;;14.13;3.08;;;10.40;99.90;;;;;;4992258;28;20038;-69
2022/05/12 02:54:37;;;;;;;8.63;3.10;;;10.50;99.90;;;;;;4974774;28;20045;-69
2022/05/12 02:57:03;;;;;;;13.63;4.03;;;10.30;99.90;;;;;;4992466;28;20145;-69
2022/05/12 02:59:29;;;;;;;11.95;3.50;;;10.40;99.90;;;;;;4974294;28;20485;-69
2022/05/12 03:01:55;;;;;;;9.05;3.60;;;10.50;99.90;;;;;;4992242;28;20111;-68
2022/05/12 03:04:20;;;;;;;8.80;3.83;;;10.10;99.90;;;;;;4974522;28;20054;-69
2022/05/12 03:06:46;;;;;;;8.63;2.80;;;10.30;99.90;;;;;;4993149;28;20085;-70
2022/05/12 03:09:12;;;;;;;7.40;3.22;;;10.40;99.90;;;;;;4974135;28;20038;-69
2022/05/12 03:11:38;;;;;;;6.25;3.30;;;10.30;99.90;;;;;;4992187;28;20088;-69
2022/05/12 03:14:03;;;;;;;9.60;3.88;;;10.20;99.90;;;;;;4975593;28;20424;-69
2022/05/12 03:16:30;;;;;;;8.45;3.30;;;10.20;99.90;;;;;;4995900;28;20129;-69
2022/05/12 03:18:56;;;;;;;7.13;3.30;;;10.20;99.90;;;;;;4995361;28;20069;-69
2022/05/12 03:21:22;;;;;;;11.00;3.40;;;10.10;99.90;;;;;;4995565;28;20519;-69
2022/05/12 03:23:48;;;;;;;14.55;4.15;;;10.20;99.90;;;;;;4978619;28;20050;-69
2022/05/12 03:26:14;;;;;;;8.65;3.40;;;10.00;99.90;;;;;;4995762;28;20058;-69
2022/05/12 03:28:40;;;;;;;13.18;3.47;;;10.10;99.90;;;;;;4995820;28;20039;-69
2022/05/12 03:31:07;;;;;;;8.15;3.33;;;10.20;99.90;;;;;;4977424;28;20045;-69
2022/05/12 03:33:35;;;;;;;5.63;3.05;;;10.10;99.90;;;;;;4962321;28;20449;-69
2022/05/12 03:36:01;;;;;;;8.20;3.92;;;10.10;99.90;;;;;;4995669;28;20435;-69
2022/05/12 03:38:27;;;;;;;8.90;3.80;;;;;;;;;;4978302;28;20042;-69
2022/05/12 03:40:53;;;;;;;9.95;3.83;;;10.20;99.90;;;;;;4977442;28;20389;-69
2022/05/12 03:46:05;;;;;;;9.93;4.85;;;10.20;99.90;;;;;;4995477;28;20054;-69
2022/05/12 03:48:35;;;;;;;8.43;4.30;;;10.30;99.90;;;;;;4995631;28;20046;-69
2022/05/12 03:51:00;;;;;;;10.63;4.47;;;10.10;99.90;;;;;;4977010;28;20038;-70
2022/05/12 03:53:26;;;;;;;13.63;4.60;;;;;;;;;;4995489;28;20459;-69
2022/05/12 03:55:52;;;;;;;12.55;4.82;;;10.30;99.90;;;;;;4977721;28;20045;-69
2022/05/12 03:58:17;;;;;;;11.82;4.10;;;10.20;99.90;;;;;;4977840;28;20046;-69
2022/05/12 04:00:43;;;;;;;8.27;3.92;;;10.40;99.90;;;;;;4976962;28;20129;-69
2022/05/12 04:03:08;;;;;;;11.55;4.20;;;10.50;99.90;;;;;;4977726;28;20046;-69
2022/05/12 04:05:34;;;;;;;10.52;4.45;;;10.50;99.90;;;;;;4994894;28;20038;-69
2022/05/12 04:08:00;;;;;;;10.43;4.38;;;10.30;99.90;;;;;;4961388;28;20046;-69
2022/05/12 04:10:26;;;;;;;9.35;4.72;;;10.40;99.90;;;;;;4976929;28;20038;-71
2022/05/12 04:12:53;;;;;;;8.90;4.25;;;10.40;99.90;;;;;;4994901;28;20061;-69
2022/05/12 04:15:21;;;;;;;10.55;4.68;;;10.50;99.90;;;;;;4995012;28;20042;-69
2022/05/12 04:18:05;;;;;;;17.52;5.93;;;10.80;99.90;;;;;;4977680;28;20050;-69
2022/05/12 04:20:32;;;;;;;11.23;4.57;;;10.50;99.90;;;;;;4994320;28;20162;-69
2022/05/12 04:22:58;;;;;;;9.60;4.05;;;10.60;99.90;;;;;;4977381;28;20424;-69
2022/05/12 04:25:25;;;;;;;11.25;4.80;;;10.60;99.90;;;;;;4976872;28;20035;-69
2022/05/12 04:27:51;;;;;;;13.75;5.40;;;10.80;99.90;;;;;;4977265;28;20043;-69
2022/05/12 04:30:19;;;;;;;12.27;4.70;;;10.60;99.90;;;;;;4960411;28;20042;-71
2022/05/12 04:32:44;;;;;;;10.15;5.45;;;10.60;99.90;;;;;;4994672;28;20046;-70
2022/05/12 04:35:14;;;;;;;9.57;4.40;;;10.70;99.90;;;;;;4977013;28;20084;-68
2022/05/12 04:37:48;;;;;;;12.23;4.47;;;10.70;99.90;;;;;;4977025;28;20042;-69
2022/05/12 04:40:25;;;;;;;12.30;4.88;;;10.70;99.90;;;;;;4976254;28;20051;-69
2022/05/12 04:42:52;;;;;;;10.45;4.00;;;10.70;99.90;;;;;;4994400;28;20508;-69
2022/05/12 04:45:19;;;;;;;9.18;4.47;;;10.70;99.90;;;;;;4976740;28;20526;-69
2022/05/12 04:47:46;;;;;;;10.20;4.18;;;10.70;99.90;;;;;;4976940;28;20046;-69
2022/05/12 04:50:16;;;;;;;9.18;4.88;;;10.60;99.90;;;;;;4976173;28;20046;-69
2022/05/12 04:52:42;;;;;;;8.55;4.15;;;10.70;99.90;;;;;;4976698;28;20039;-69
2022/05/12 04:55:08;;;;;;;9.82;4.95;;;10.80;99.90;;;;;;4994279;28;20097;-68
2022/05/12 04:57:38;;;;;;;13.13;4.57;;;10.80;99.90;;;;;;4976713;28;20497;-69
2022/05/12 05:00:08;;;;;;;9.68;4.75;;;10.80;99.90;;;;;;4975942;28;20053;-69
2022/05/12 05:02:33;;;;;;;8.32;4.60;;;10.90;99.90;;;;;;4960423;28;20042;-69
2022/05/12 05:04:59;;;;;;;10.55;5.13;;;;;;;;;;4994231;28;20374;-69
2022/05/12 05:07:26;;;;;;;11.98;4.70;;;11.10;99.90;;;;;;4976377;28;20034;-69
2022/05/12 05:09:52;;;;;;;12.27;4.50;;;11.10;99.90;;;;;;4976059;28;20409;-69
2022/05/12 05:12:18;;;;;;;9.63;4.45;;;11.20;99.90;;;;;;4976304;28;20045;-69
2022/05/12 05:14:43;;;;;;;14.73;5.25;;;11.20;99.90;;;;;;4976621;28;20039;-69
2022/05/12 05:17:09;;;;;;;7.47;3.90;;;;;;;;;;4976591;28;20046;-72
2022/05/12 05:19:35;;;;;;;9.23;4.10;;;11.30;99.90;;;;;;4975760;28;20057;-69
2022/05/12 05:22:01;;;;;;;6.50;3.97;;;;;;;;;;4960107;28;20034;-69
2022/05/12 05:24:27;;;;;;;12.85;4.68;;;11.40;99.90;;;;;;4976003;28;20038;-69
2022/05/12 05:26:52;;;;;;;10.60;4.05;;;11.40;99.90;;;;;;4976045;28;20080;-69
2022/05/12 05:29:18;;;;;;;11.93;4.30;;;11.60;99.90;;;;;;4975294;28;20492;-69
2022/05/12 05:31:44;;;;;;;7.93;3.88;;;11.60;99.90;;;;;;4993515;28;20034;-69
2022/05/12 05:34:09;;;;;;;8.73;4.47;;;11.50;99.90;;;;;;4975947;28;20038;-69
2022/05/12 05:36:39;;;;;;;8.40;4.43;;;11.80;99.90;;;;;;4975349;28;20492;-69
2022/05/12 05:39:06;;;;;;;9.95;4.45;;;12.10;99.90;;;;;;4975346;28;20049;-69
2022/05/12 05:41:32;;;;;;;12.85;4.85;;;;;;;;;;4976150;28;20042;-69
2022/05/12 05:43:58;;;;;;;10.80;3.60;;;11.90;99.90;;;;;;4975974;28;20050;-69
2022/05/12 05:46:24;;;;;;;10.95;3.80;;;12.00;99.90;;;;;;4975745;28;20519;-69
2022/05/12 05:48:51;;;;;;;11.00;3.85;;;;;;;;;;4959542;28;20077;-69
2022/05/12 05:54:01;;;;;;;9.07;4.15;;;12.20;99.90;;;;;;4993162;28;20042;-69
2022/05/12 05:56:26;;;;;;;14.88;4.30;;;12.50;99.90;;;;;;4966825;28;20416;-69
2022/05/12 05:58:52;;;;;;;12.93;3.95;;;;;;;;;;4969969;28;20042;-68
2022/05/12 06:01:18;;;;;;;6.85;3.67;;;12.50;99.90;;;;;;4971389;28;20050;-68
2022/05/12 06:03:45;;;;;;;6.22;3.50;;;12.60;99.90;;;;;;4971450;28;20038;-70
2022/05/12 06:06:11;;;;;;;12.75;4.00;;;12.60;99.90;;;;;;4971494;28;20046;-69
2022/05/12 06:08:37;;;;;;;8.63;3.22;;;12.50;99.90;;;;;;4954841;28;20092;-69
2022/05/12 06:11:04;;;;;;;15.15;3.50;;;12.70;99.90;;;;;;4954699;28;20475;-70
2022/05/12 06:13:32;;;;;;;10.70;3.83;;;12.90;99.90;;;;;;4971193;28;20092;-68
2022/05/12 06:15:58;;;;;;;14.30;3.58;;;12.90;99.90;;;;;;4989039;28;20034;-69
2022/05/12 06:18:24;;;;;;;11.20;3.00;;;13.00;99.90;;;;;;4955357;28;20073;-69
2022/05/12 06:20:50;;;;;;;8.07;2.60;;;12.90;99.90;;;;;;4970702;28;20514;-69
2022/05/12 06:23:17;;;;;;;13.45;3.20;;;13.20;99.90;;;;;;4988334;28;20053;-68
2022/05/12 06:25:44;;;;;;;9.40;2.63;;;13.10;99.90;;;;;;4988749;28;20046;-70
2022/05/12 06:28:10;;;;;;;14.15;3.25;;;13.20;99.90;;;;;;4954600;28;20046;-69
2022/05/12 06:30:36;;;;;;;10.25;2.85;;;13.30;99.90;;;;;;4970257;28;20464;-69
2022/05/12 06:33:03;;;;;;;15.48;2.67;;;13.30;99.90;;;;;;4971113;28;20057;-69
2022/05/12 06:35:28;;;;;;;5.80;2.70;;;13.30;99.90;;;;;;4988442;28;20046;-68
2022/05/12 06:37:54;;;;;;;11.82;2.65;;;13.30;99.90;;;;;;4955133;28;20471;-68
2022/05/12 06:40:20;;;;;;;8.63;2.50;;;13.60;99.90;;;;;;4990060;28;20042;-66
2022/05/12 06:42:46;;;;;;;12.30;3.20;;;13.40;99.90;;;;;;4961496;28;20038;-70
2022/05/12 06:45:16;;;;;;;13.70;2.97;;;13.50;99.90;;;;;;4980152;28;20088;-68
2022/05/12 06:47:51;;;;;;;12.68;3.17;;;13.50;99.90;;;;;;4970455;28;20039;-68
2022/05/12 06:50:26;;;;;;;9.30;2.47;;;13.50;99.90;;;;;;4967653;28;20070;-69
2022/05/12 06:52:53;;;;;;;15.75;4.38;;;13.70;99.90;;;;;;4990665;28;20504;-69
2022/05/12 06:55:20;;;;;;;10.75;2.42;;;13.70;99.90;;;;;;4954118;28;20516;-71
2022/05/12 06:57:45;;;;;;;15.52;3.72;;;13.70;99.90;;;;;;4965849;28;20085;-69
2022/05/12 07:00:16;;;;;;;12.65;2.80;;;13.80;99.90;;;;;;4974040;28;20104;-70
2022/05/12 07:02:42;;;;;;;20.92;3.38;;;13.90;99.90;;;;;;4950435;28;20052;-69
2022/05/12 07:05:11;;;;;;;15.40;3.28;;;14.20;99.90;;;;;;4995636;28;20069;-70
2022/05/12 07:07:37;;;;;;;8.60;2.63;;;14.10;99.90;;;;;;4977867;28;20046;-68
2022/05/12 07:10:04;;;;;;;9.27;2.20;;;14.10;99.90;;;;;;4961780;28;20038;-69
2022/05/12 07:12:29;;;;;;;10.05;1.98;;;14.20;99.90;;;;;;4971249;28;20042;-68
2022/05/12 07:14:56;;;;;;;14.73;3.38;;;14.20;99.90;;;;;;4971709;28;20038;-68
2022/05/12 07:17:22;;;;;;;15.30;2.90;;;14.00;99.90;;;;;;4973124;28;20092;-68
2022/05/12 07:19:49;;;;;;;16.98;2.50;;;14.50;99.90;;;;;;4971799;28;20088;-69
2022/05/12 07:27:44;;;;;;;9.43;2.40;;;14.60;99.90;;;;;;4972876;28;20050;-68
2022/05/12 07:30:10;;;;;;;11.15;2.70;;;14.70;99.90;;;;;;4969949;28;20492;-68
2022/05/12 07:32:37;;;;;;;16.45;3.05;;;14.80;99.90;;;;;;4972598;28;20411;-69
2022/05/12 07:35:05;;;;;;;13.88;3.15;;;15.80;99.90;;;;;;4972417;28;20042;-68
2022/05/12 07:37:30;;;;;;;9.77;2.60;;;14.80;99.90;;;;;;4970962;28;20368;-69
2022/05/12 07:39:56;;;;;;;10.52;2.88;;;14.80;99.90;;;;;;4952850;28;20127;-69
2022/05/12 07:42:22;;;;;;;10.88;2.22;;;14.90;99.90;;;;;;4987744;28;20042;-69
2022/05/12 07:44:47;;;;;;;12.75;2.70;;;14.90;99.90;;;;;;4989775;28;20046;-71
2022/05/12 07:47:13;;;;;;;11.73;2.58;;;15.00;99.90;;;;;;4971704;28;20041;-68
2022/05/12 07:49:40;;;;;;;11.68;2.13;;;15.10;99.90;;;;;;4970656;28;20034;-69
2022/05/12 07:52:08;;;;;;;10.00;2.22;;;15.20;99.90;;;;;;4980486;28;20053;-69
2022/05/12 07:54:35;;;;;;;7.53;1.77;;;15.00;99.90;;;;;;4971839;28;20461;-69
2022/05/12 07:57:01;;;;;;;10.05;2.10;;;15.20;99.90;;;;;;4973275;28;20440;-69
2022/05/12 07:59:31;;;;;;;11.73;2.35;;;15.30;99.90;;;;;;4971653;28;20146;-69
2022/05/12 08:01:58;;;;;;;9.05;2.17;;;15.40;99.90;;;;;;4959474;28;20485;-69
2022/05/12 08:04:25;;;;;;;13.05;2.92;;;15.30;99.90;;;;;;4976354;28;20046;-69
2022/05/12 08:06:50;;;;;;;11.00;2.47;;;15.30;99.90;;;;;;4974607;28;20042;-69
2022/05/12 08:09:16;;;;;;;5.78;1.98;;;15.20;99.90;;;;;;4976036;28;20049;-69
2022/05/12 08:11:41;;;;;;;8.55;2.00;;;15.40;99.90;;;;;;4976404;28;20074;-70
2022/05/12 08:14:07;;;;;;;8.68;2.13;;;15.40;99.90;;;;;;4975200;28;20039;-69
2022/05/12 08:16:34;;;;;;;7.85;2.28;;;15.50;99.90;;;;;;4993700;28;20045;-69
2022/05/12 08:18:59;;;;;;;7.15;1.83;;;15.70;99.90;;;;;;4974164;28;20421;-70
2022/05/12 08:21:25;;;;;;;9.02;1.85;;;15.80;99.90;;;;;;4975096;28;20034;-69
2022/05/12 08:23:54;;;;;;;9.85;1.77;;;16.70;99.90;;;;;;4959305;28;20042;-69
2022/05/12 08:26:20;;;;;;;6.47;1.63;;;15.80;99.90;;;;;;4975166;28;20092;-69
2022/05/12 08:28:49;;;;;;;7.97;2.03;;;15.90;99.90;;;;;;4977567;28;20041;-69
2022/05/12 08:31:14;;;;;;;7.85;1.80;;;16.00;99.90;;;;;;4997185;28;20109;-69
2022/05/12 08:33:40;;;;;;;5.68;1.92;;;16.00;99.90;;;;;;4974501;28;20184;-69
2022/05/12 08:36:06;;;;;;;6.32;1.73;;;16.20;99.90;;;;;;4955559;28;20034;-69
2022/05/12 08:38:34;;;;;;;7.28;1.77;;;16.30;99.90;;;;;;4994064;28;20057;-69
2022/05/12 08:41:02;;;;;;;7.43;2.25;;;16.20;99.90;;;;;;4959137;28;20038;-69
2022/05/12 08:43:51;;;;;;;6.35;1.80;;;16.10;99.90;;;;;;4959726;28;20496;-68
2022/05/12 08:46:22;;;;;;;5.57;1.80;;;16.20;99.90;;;;;;4975841;28;20054;-68
2022/05/12 08:48:52;;;;;;;10.05;2.00;;;16.00;99.90;;;;;;4977781;28;20499;-68
2022/05/12 08:51:21;;;;;;;5.05;1.42;;;16.00;99.90;;;;;;4978133;28;20412;-68
2022/05/12 08:53:55;;;;;;;10.48;1.92;;;16.10;99.90;;;;;;4983460;28;20049;-68
2022/05/12 08:56:23;;;;;;;4.82;1.60;;;15.90;99.90;;;;;;4975607;28;20085;-68
2022/05/12 08:58:51;;;;;;;9.63;2.55;;;15.80;99.90;;;;;;4998309;28;20043;-69
2022/05/12 09:01:28;;;;;;;7.75;1.92;;;15.60;99.90;;;;;;4975653;28;20404;-69
2022/05/12 09:04:18;;;;;;;8.90;1.55;;;15.90;99.90;;;;;;4992824;28;20046;-68
2022/05/12 09:07:07;;;;;;;9.38;1.98;;;15.80;99.90;;;;;;5018416;22;20057;-67
2022/05/12 09:09:39;;;;;;;12.43;3.15;;;15.90;99.90;;;;;;4978594;28;20041;-68
2022/05/12 09:12:30;;;;;;;4.85;2.00;;;16.20;99.90;;;;;;5011038;28;20045;-67
2022/05/12 09:15:24;;;;;;;4.80;1.85;;;16.30;99.90;;;;;;4998381;28;20046;-67
2022/05/12 09:17:58;;;;;;;7.32;1.77;;;16.20;99.90;;;;;;5011893;28;20053;-67
2022/05/12 09:20:26;;;;;;;7.05;1.90;;;16.40;99.90;;;;;;4993968;28;20095;-67
2022/05/12 09:22:52;;;;;;;5.00;1.98;;;16.30;99.90;;;;;;4994695;28;20046;-68
2022/05/12 09:25:34;;;;;;;9.90;1.95;;;16.40;99.90;;;;;;5001483;28;20089;-68
2022/05/12 09:28:25;;;;;;;5.38;1.17;;;16.80;99.90;;;;;;4992440;28;20047;-69
2022/05/12 09:30:51;;;;;;;7.53;2.13;;;17.00;99.90;;;;;;4974074;28;20149;-68
2022/05/12 09:33:34;;;;;;;5.88;2.00;;;16.70;99.90;;;;;;4992545;28;20117;-68
2022/05/12 09:36:06;;;;;;;11.55;2.08;;;16.50;99.90;;;;;;4992458;28;20057;-68
2022/05/12 09:38:44;;;;;;;3.83;1.57;;;16.70;99.90;;;;;;4979734;28;20046;-65
2022/05/12 09:41:21;;;;;;;8.65;1.60;;;17.00;99.90;;;;;;4991228;28;20269;-66
2022/05/12 09:43:50;;;;;;;6.97;2.00;;;17.10;99.90;;;;;;4971163;28;20640;-68
2022/05/12 09:46:20;;;;;;;8.90;2.00;;;17.10;99.90;;;;;;4971334;28;20066;-67
2022/05/12 09:48:48;;;;;;;6.38;1.38;;;17.10;99.90;;;;;;4955545;28;20424;-67
2022/05/12 09:51:30;;;;;;;4.38;1.13;;;17.20;99.90;;;;;;4982981;28;20026;-68
2022/05/12 09:54:15;;;;;;;6.70;1.30;;;17.30;99.90;;;;;;4999995;28;20037;-67
2022/05/12 09:56:44;;;;;;;5.28;1.67;;;17.30;99.90;;;;;;4967460;28;20484;-67
2022/05/12 09:59:12;;;;;;;8.02;1.60;;;17.30;99.90;;;;;;5003000;28;20041;-66
2022/05/12 10:01:52;;;;;;;5.28;1.20;;;;;;;;;;4993862;28;20404;-67
2022/05/12 10:10:25;;;;;;;6.53;2.05;;;17.90;99.90;;;;;;4992833;28;20069;-67
2022/05/12 10:13:14;;;;;;;6.55;1.20;;;17.60;99.90;;;;;;4993576;28;20052;-67
2022/05/12 10:15:42;;;;;;;10.90;1.20;;;17.60;99.90;;;;;;4993760;28;20088;-67
2022/05/12 10:18:13;;;;;;;6.35;1.38;;;17.80;99.90;;;;;;4993257;28;20516;-68
2022/05/12 10:20:46;;;;;;;3.15;1.15;;;17.90;99.90;;;;;;5010400;28;20507;-68
2022/05/12 10:23:41;;;;;;;5.90;1.73;;;18.00;99.90;;;;;;4976667;28;20540;-67
2022/05/12 10:26:12;;;;;;;4.22;0.90;;;17.60;99.90;;;;;;4970627;28;20085;-68
2022/05/12 10:29:02;;;;;;;3.60;1.05;;;17.90;99.90;;;;;;4983463;28;20104;-68
2022/05/12 10:31:32;;;;;;;6.03;1.42;;;17.40;99.90;;;;;;5001487;28;20038;-67
2022/05/12 10:34:19;;;;;;;5.72;1.50;;;16.90;99.90;;;;;;4982656;28;20234;-67
2022/05/12 10:36:49;;;;;;;4.88;1.08;;;17.20;99.90;;;;;;4979556;28;20045;-68
2022/05/12 10:39:41;;;;;;;2.30;0.75;;;17.00;99.90;;;;;;4967211;28;20049;-67
2022/05/12 10:42:19;;;;;;;2.30;0.90;;;17.00;99.90;;;;;;5000256;28;20496;-68
2022/05/12 10:45:03;;;;;;;3.97;1.15;;;17.60;99.90;;;;;;4964816;28;20501;-68
2022/05/12 10:47:53;;;;;;;3.17;1.13;;;18.00;99.90;;;;;;4993125;28;20145;-66
2022/05/12 10:50:41;;;;;;;5.78;1.30;;;18.30;99.90;;;;;;4979232;28;20397;-68
2022/05/12 10:53:35;;;;;;;7.68;1.27;;;18.30;99.90;;;;;;4960928;28;20049;-67
2022/05/12 10:56:13;;;;;;;4.40;1.15;;;18.10;99.90;;;;;;5002873;28;20044;-68
2022/05/12 10:58:42;;;;;;;4.72;1.10;;;18.20;99.90;;;;;;5010986;28;20053;-68
2022/05/12 11:01:09;;;;;;;4.65;1.58;;;;;;;;;;4992403;28;20060;-68
2022/05/12 11:03:45;;;;;;;5.82;1.40;;;18.70;99.90;;;;;;4993223;28;20050;-68
2022/05/12 11:06:15;;;;;;;9.80;1.67;;;18.60;99.90;;;;;;4982502;28;20451;-68
2022/05/12 11:08:59;;;;;;;6.43;1.67;;;18.50;99.90;;;;;;4973124;28;20042;-68
2022/05/12 11:11:39;;;;;;;6.65;1.67;;;17.90;99.90;;;;;;4973639;28;20042;-68
2022/05/12 11:14:31;;;;;;;5.15;1.52;;;18.10;99.90;;;;;;4973350;28;20087;-69
2022/05/12 11:16:59;;;;;;;4.45;1.63;;;19.20;99.90;;;;;;4990768;28;20587;-67
2022/05/12 11:19:26;;;;;;;2.63;1.17;;;18.80;99.90;;;;;;4990349;28;20049;-67
2022/05/12 11:22:13;;;;;;;3.38;1.20;;;18.80;99.90;;;;;;4973809;28;20042;-67
2022/05/12 11:24:49;;;;;;;4.13;1.67;;;19.00;99.60;;;;;;4991039;28;20061;-67
2022/05/12 11:27:33;;;;;;;4.60;2.03;;;18.40;99.70;;;;;;4973225;28;20061;-68
2022/05/12 11:30:20;;;;;;;5.15;1.38;;;18.70;99.90;;;;;;4972012;28;20054;-67
2022/05/12 11:32:55;;;;;;;5.18;1.70;;;18.30;99.30;;;;;;4973133;28;20074;-68
2022/05/12 11:35:30;;;;;;;10.40;2.42;;;18.20;99.60;;;;;;4975083;28;20045;-67
2022/05/12 11:38:04;;;;;;;5.78;2.10;;;17.80;99.70;;;;;;4994965;28;20050;-68
2022/05/12 11:40:48;;;;;;;3.25;1.30;;;18.10;99.70;;;;;;4993708;28;20576;-68
2022/05/12 11:46:35;;;;;;;4.90;1.40;;;18.00;99.40;;;;;;4994375;28;20425;-69
2022/05/12 11:49:02;;;;;;;7.00;1.55;;;18.20;99.20;;;;;;4976671;28;20404;-68
2022/05/12 11:51:35;;;;;;;5.07;1.40;;;18.30;99.90;;;;;;4980914;28;20042;-68
2022/05/12 11:54:03;;;;;;;4.68;1.63;;;17.80;99.60;;;;;;5014430;28;20073;-69
2022/05/12 11:56:48;;;;;;;7.88;1.70;;;18.90;99.80;;;;;;5013954;28;20361;-68
2022/05/12 11:59:43;;;;;;;6.60;1.55;;;18.50;99.30;;;;;;5003216;28;20038;-69
2022/05/12 12:02:27;;;;;;;5.00;1.40;;;18.30;99.10;;;;;;4976521;28;20463;-68
2022/05/12 12:04:54;;;;;;;3.90;1.58;;;18.80;98.90;;;;;;4976205;28;20049;-68
2022/05/12 12:07:32;;;;;;;5.22;1.90;;;18.90;99.10;;;;;;4976452;28;20054;-68
2022/05/12 12:10:03;;;;;;;5.05;1.98;;;18.30;99.20;;;;;;4975768;28;20034;-69
2022/05/12 12:12:42;;;;;;;3.88;1.48;;;18.10;99.20;;;;;;4994106;28;20121;-68
2022/05/12 12:15:33;;;;;;;3.22;1.73;;;18.20;98.80;;;;;;4976291;28;20311;-68
2022/05/12 12:18:18;;;;;;;6.28;1.55;;;18.70;99.60;;;;;;4980058;28;20420;-69
2022/05/12 12:20:50;;;;;;;2.83;1.67;;;18.90;98.40;;;;;;4993245;28;20046;-68
2022/05/12 12:23:44;;;;;;;5.93;1.45;;;18.80;98.60;;;;;;4976574;28;20065;-69
2022/05/12 12:26:26;;;;;;;3.50;1.30;;;18.80;98.50;;;;;;4992003;28;20046;-69
2022/05/12 12:28:59;;;;;;;5.10;1.30;;;18.30;98.50;;;;;;4975929;28;20050;-66
2022/05/12 12:31:25;;;;;;;;;;;18.20;98.60;;;;;;4993716;28;20069;-69
2022/05/12 12:34:05;;;;;;;3.70;1.30;;;18.30;98.50;;;;;;4976490;28;19991;-69
2022/05/12 12:36:36;;;;;;;7.68;2.20;;;18.00;98.90;;;;;;4976021;28;20497;-68
2022/05/12 12:39:11;;;;;;;4.13;1.38;;;18.20;98.90;;;;;;4975490;28;20041;-68
2022/05/12 12:41:41;;;;;;;3.15;1.35;;;18.20;98.70;;;;;;4976057;28;20045;-68
2022/05/12 12:44:09;;;;;;;5.88;1.60;;;18.40;98.00;;;;;;4988761;28;20086;-68
2022/05/12 12:47:05;;;;;;;5.10;1.60;;;18.30;98.40;;;;;;4973560;28;20047;-67
2022/05/12 12:49:48;;;;;;;5.13;1.40;;;18.80;97.50;;;;;;4973436;28;20132;-67
2022/05/12 12:52:15;;;;;;;3.53;1.38;;;18.70;98.00;;;;;;4976995;28;20045;-68
2022/05/12 12:57:38;;;;;;;4.53;1.45;;;18.90;97.70;;;;;;5012901;28;20041;-69
2022/05/12 13:00:08;;;;;;;5.82;1.85;;;19.00;97.50;;;;;;5012048;28;20048;-68
2022/05/12 13:02:42;;;;;;;6.65;1.13;;;18.30;97.50;;;;;;5012774;28;20049;-68
2022/05/12 13:05:08;;;;;;;6.95;2.03;;;17.90;97.90;;;;;;4995234;28;20050;-67
2022/05/12 13:07:36;;;;;;;4.35;1.50;;;18.60;98.20;;;;;;4975265;28;20416;-67
2022/05/12 13:10:10;;;;;;;3.60;1.48;;;18.70;97.80;;;;;;4958684;28;20034;-68
2022/05/12 13:12:36;;;;;;;2.17;1.30;;;18.90;97.50;;;;;;4993027;28;20168;-67
2022/05/12 13:15:14;;;;;;;3.85;1.10;;;19.20;98.00;;;;;;4975110;28;20046;-67
2022/05/12 13:17:48;;;;;;;7.70;1.40;;;19.60;97.50;;;;;;4992499;28;20049;-68
2022/05/12 13:20:18;;;;;;;9.20;1.75;;;18.90;99.30;;;;;;4992153;28;20503;-67
2022/05/12 13:22:49;;;;;;;3.28;1.10;;;19.10;99.70;;;;;;4975320;28;20085;-67
2022/05/12 13:25:20;;;;;;;4.40;1.40;;;19.70;99.90;;;;;;4992408;28;20038;-67